Current Conditions
Partly Cloudy
Conditions



Pressure
1013.92 (hPa) - 29.94 (inHG)
Visibility

6.2 (miles) - 10.0 (km)
   Temperature
4  °C
Temperature
-2  °C
Dewpoint
65  %
 Humidity
   Wind Speed
6  mph
5  kts
10  km/h
2.7  m/s
   Wind Direction
N
45°
E
90°
135°
S
180°
225°
W
270°
315°
 260°

Due West
   Airport Data
EGHI
Southampton Airport
Metar :EGHI 251720Z 26005KT 230V290 9999 FEW035 04/M02 Q1014
Mon 25th January 17:20 pm
   Raw Metar Info
Raw METAR is the most common format in the world for the transmission of observational weather data. It is highly standardized through the International Civil Aviation Organization (ICAO), which allows it to be understood throughout most of the world.
   API Info
Data Provided by
https://www.checkwx.com/weather/EGHI

Aviation Weather providing METAR, TAF, AIRMET, SIGMET and OUTLOOK Weather Reports
   © Info
CSS/SVG/PHP scripts were developed by weather34.com for use in the weather34 template © 2015-2021

Guide Info provided by Metar-Wikipedia